This is the latest recevied weather packets stored in our database for station/object KJ4EBE. If no packets are shown the sender has not sent any weather packets the latest 1 day(s).
| Time | Temp. | Humidity | Pressure | Rain* | Wind** | Luminosity | Snow |
|---|---|---|---|---|---|---|---|
| 1778030722 | 26.11° C | 80% | 1005.4 hPa | 0 mm | - | 0 W/m² | - |
| 1778030420 | 26.11° C | 80% | 1005.5 hPa | 0 mm | - | 1 W/m² | - |
| 1778029814 | 26.67° C | 79% | 1005.3 hPa | 0 mm | - | 3 W/m² | - |
| 1778028907 | 27.22° C | 77% | 1005.3 hPa | 0 mm | - | 10 W/m² | - |
| 1778028602 | 27.22° C | 76% | 1005.3 hPa | 0 mm | - | 13 W/m² | - |
| 1778028300 | 27.22° C | 76% | 1005.3 hPa | 0 mm | - | 17 W/m² | - |
| 1778027692 | 27.78° C | 74% | 1005.2 hPa | 0 mm | - | 22 W/m² | - |
| 1778027085 | 28.33° C | 73% | 1005.3 hPa | 0 mm | - | 39 W/m² | - |
| 1778026780 | 28.33° C | 73% | 1005.3 hPa | 0 mm | - | 51 W/m² | - |
| 1778026175 | 29.44° C | 71% | 1005.3 hPa | 0 mm | - | 73 W/m² | - |
| 1778024056 | 30° C | 64% | 1005.2 hPa | 0 mm | - | 113 W/m² | - |
| 1778023147 | 30.56° C | 63% | 1005.2 hPa | 0 mm | - | 119 W/m² | - |
| 1778022845 | 30.56° C | 62% | 1005.2 hPa | 0 mm | - | 183 W/m² | - |
| 1778022543 | 31.11° C | 62% | 1005.1 hPa | 0 mm | - | 209 W/m² | - |
| 1778021634 | 30.56° C | 64% | 1005 hPa | 0 mm | - | 178 W/m² | - |
| 1778021027 | 31.11° C | 62% | 1005 hPa | 0 mm | - | 164 W/m² | - |
| 1778019510 | 31.67° C | 62% | 1005.1 hPa | 0 mm | - | 248 W/m² | - |
| 1778016787 | 31.11° C | 64% | 1005.4 hPa | 0 mm | - | 474 W/m² | - |
| 1778016481 | 31.11° C | 64% | 1005.4 hPa | 0 mm | - | 492 W/m² | - |
| 1778016179 | 31.11° C | 63% | 1005.5 hPa | 0 mm | - | 437 W/m² | - |
| 1778015875 | 31.11° C | 64% | 1005.4 hPa | 0 mm | - | 388 W/m² | - |
| 1778013756 | 31.11° C | 65% | 1005.9 hPa | 0 mm | - | 533 W/m² | - |
* Rain latest hour (hover to see other rain measurements)
** Current wind speed in m/s (hover to see current wind gust speed)